sensor_id;sensor_type;location;lat;lon;timestamp;temperature;humidity
26270;DHT22;15937;50.612;6.656;2023-04-03T00:02:06;4.40;99.90
26270;DHT22;15937;50.612;6.656;2023-04-03T00:06:08;4.40;99.90
26270;DHT22;15937;50.612;6.656;2023-04-03T00:10:12;4.40;99.90
26270;DHT22;15937;50.612;6.656;2023-04-03T00:14:13;4.40;99.90
26270;DHT22;15937;50.612;6.656;2023-04-03T00:18:15;4.40;99.90
26270;DHT22;15937;50.612;6.656;2023-04-03T00:22:17;4.10;99.90
26270;DHT22;15937;50.612;6.656;2023-04-03T00:26:19;4.20;99.90
26270;DHT22;15937;50.612;6.656;2023-04-03T00:30:22;4.00;99.90
26270;DHT22;15937;50.612;6.656;2023-04-03T00:34:24;4.00;99.90
26270;DHT22;15937;50.612;6.656;2023-04-03T00:38:25;4.10;99.90
26270;DHT22;15937;50.612;6.656;2023-04-03T00:42:27;4.10;99.90
26270;DHT22;15937;50.612;6.656;2023-04-03T00:46:29;4.20;99.90
26270;DHT22;15937;50.612;6.656;2023-04-03T00:50:33;4.20;99.90
26270;DHT22;15937;50.612;6.656;2023-04-03T00:54:36;4.00;99.90
26270;DHT22;15937;50.612;6.656;2023-04-03T00:58:49;4.00;99.90
26270;DHT22;15937;50.612;6.656;2023-04-03T01:02:52;4.00;99.90
26270;DHT22;15937;50.612;6.656;2023-04-03T01:06:56;4.10;99.90
26270;DHT22;15937;50.612;6.656;2023-04-03T01:10:59;4.10;99.90
26270;DHT22;15937;50.612;6.656;2023-04-03T01:15:09;4.10;99.90
26270;DHT22;15937;50.612;6.656;2023-04-03T01:19:15;4.10;99.90
26270;DHT22;15937;50.612;6.656;2023-04-03T01:27:37;4.00;99.90
26270;DHT22;15937;50.612;6.656;2023-04-03T01:31:52;4.00;99.90
26270;DHT22;15937;50.612;6.656;2023-04-03T01:35:54;4.00;99.90
26270;DHT22;15937;50.612;6.656;2023-04-03T01:39:56;3.90;99.90
26270;DHT22;15937;50.612;6.656;2023-04-03T01:43:58;3.90;99.90
26270;DHT22;15937;50.612;6.656;2023-04-03T01:48:00;3.80;99.90
26270;DHT22;15937;50.612;6.656;2023-04-03T01:52:01;3.80;99.90
26270;DHT22;15937;50.612;6.656;2023-04-03T01:56:03;3.80;99.90
26270;DHT22;15937;50.612;6.656;2023-04-03T02:00:06;3.80;99.90
26270;DHT22;15937;50.612;6.656;2023-04-03T02:04:09;3.80;99.90
26270;DHT22;15937;50.612;6.656;2023-04-03T02:08:11;3.60;99.90
26270;DHT22;15937;50.612;6.656;2023-04-03T02:12:13;3.70;99.90
26270;DHT22;15937;50.612;6.656;2023-04-03T02:16:14;3.80;99.90
26270;DHT22;15937;50.612;6.656;2023-04-03T02:20:16;3.80;99.90
26270;DHT22;15937;50.612;6.656;2023-04-03T02:24:18;3.80;99.90
26270;DHT22;15937;50.612;6.656;2023-04-03T02:28:20;3.70;99.90
26270;DHT22;15937;50.612;6.656;2023-04-03T02:32:21;3.60;99.90
26270;DHT22;15937;50.612;6.656;2023-04-03T02:36:23;3.60;99.90
26270;DHT22;15937;50.612;6.656;2023-04-03T02:40:25;3.50;99.90
26270;DHT22;15937;50.612;6.656;2023-04-03T02:44:27;3.50;99.90
26270;DHT22;15937;50.612;6.656;2023-04-03T02:48:28;3.50;99.90
26270;DHT22;15937;50.612;6.656;2023-04-03T02:52:31;3.40;99.90
26270;DHT22;15937;50.612;6.656;2023-04-03T02:56:33;3.40;99.90
26270;DHT22;15937;50.612;6.656;2023-04-03T03:00:35;3.30;99.90
26270;DHT22;15937;50.612;6.656;2023-04-03T03:04:37;3.30;99.90
26270;DHT22;15937;50.612;6.656;2023-04-03T03:08:39;3.40;99.90
26270;DHT22;15937;50.612;6.656;2023-04-03T03:12:41;3.30;99.90
26270;DHT22;15937;50.612;6.656;2023-04-03T03:16:43;3.20;99.90
26270;DHT22;15937;50.612;6.656;2023-04-03T03:20:45;3.10;99.90
26270;DHT22;15937;50.612;6.656;2023-04-03T03:24:47;3.10;99.90
26270;DHT22;15937;50.612;6.656;2023-04-03T03:28:48;3.00;99.90
26270;DHT22;15937;50.612;6.656;2023-04-03T03:32:50;2.90;99.90
26270;DHT22;15937;50.612;6.656;2023-04-03T03:36:51;2.90;99.90
26270;DHT22;15937;50.612;6.656;2023-04-03T03:40:53;2.60;99.90
26270;DHT22;15937;50.612;6.656;2023-04-03T03:44:55;2.60;99.90
26270;DHT22;15937;50.612;6.656;2023-04-03T03:48:56;2.60;99.90
26270;DHT22;15937;50.612;6.656;2023-04-03T03:52:58;2.60;99.90
26270;DHT22;15937;50.612;6.656;2023-04-03T03:57:00;2.80;99.90
26270;DHT22;15937;50.612;6.656;2023-04-03T04:01:05;2.60;99.90
26270;DHT22;15937;50.612;6.656;2023-04-03T04:05:08;2.60;99.90
26270;DHT22;15937;50.612;6.656;2023-04-03T04:09:09;2.60;99.90
26270;DHT22;15937;50.612;6.656;2023-04-03T04:13:11;2.50;99.90
26270;DHT22;15937;50.612;6.656;2023-04-03T04:17:13;2.50;99.90
26270;DHT22;15937;50.612;6.656;2023-04-03T04:21:15;2.50;99.90
26270;DHT22;15937;50.612;6.656;2023-04-03T04:25:16;2.40;99.90
26270;DHT22;15937;50.612;6.656;2023-04-03T04:29:18;2.40;99.90
26270;DHT22;15937;50.612;6.656;2023-04-03T04:33:20;2.30;99.90
26270;DHT22;15937;50.612;6.656;2023-04-03T04:37:22;2.10;99.90
26270;DHT22;15937;50.612;6.656;2023-04-03T04:41:23;2.00;99.90
26270;DHT22;15937;50.612;6.656;2023-04-03T04:45:25;1.90;99.90
26270;DHT22;15937;50.612;6.656;2023-04-03T04:49:27;1.80;99.90
26270;DHT22;15937;50.612;6.656;2023-04-03T04:53:28;1.90;99.90
26270;DHT22;15937;50.612;6.656;2023-04-03T04:57:30;1.80;99.90
26270;DHT22;15937;50.612;6.656;2023-04-03T05:01:32;1.90;99.90
26270;DHT22;15937;50.612;6.656;2023-04-03T05:05:34;1.90;99.90
26270;DHT22;15937;50.612;6.656;2023-04-03T05:09:37;1.70;99.90
26270;DHT22;15937;50.612;6.656;2023-04-03T05:13:38;1.40;99.90
26270;DHT22;15937;50.612;6.656;2023-04-03T05:17:40;1.60;99.90
26270;DHT22;15937;50.612;6.656;2023-04-03T05:21:42;1.50;99.90
26270;DHT22;15937;50.612;6.656;2023-04-03T05:25:44;1.60;99.90
26270;DHT22;15937;50.612;6.656;2023-04-03T05:29:48;1.70;99.90
26270;DHT22;15937;50.612;6.656;2023-04-03T05:33:50;1.80;99.90
26270;DHT22;15937;50.612;6.656;2023-04-03T05:37:51;1.90;99.90
26270;DHT22;15937;50.612;6.656;2023-04-03T05:41:53;1.90;99.90
26270;DHT22;15937;50.612;6.656;2023-04-03T05:45:55;1.80;99.90
26270;DHT22;15937;50.612;6.656;2023-04-03T05:49:56;1.90;99.90
26270;DHT22;15937;50.612;6.656;2023-04-03T05:54:11;2.00;99.90
26270;DHT22;15937;50.612;6.656;2023-04-03T05:58:13;2.10;99.90
26270;DHT22;15937;50.612;6.656;2023-04-03T06:02:17;2.10;99.90
26270;DHT22;15937;50.612;6.656;2023-04-03T06:06:20;2.10;99.90
26270;DHT22;15937;50.612;6.656;2023-04-03T06:10:23;2.40;99.90
26270;DHT22;15937;50.612;6.656;2023-04-03T06:14:27;2.50;99.90
26270;DHT22;15937;50.612;6.656;2023-04-03T06:18:29;2.70;99.90
26270;DHT22;15937;50.612;6.656;2023-04-03T06:22:31;2.60;99.90
26270;DHT22;15937;50.612;6.656;2023-04-03T06:26:33;2.60;99.90
26270;DHT22;15937;50.612;6.656;2023-04-03T06:30:36;2.90;99.90
26270;DHT22;15937;50.612;6.656;2023-04-03T06:34:38;3.00;99.90
26270;DHT22;15937;50.612;6.656;2023-04-03T06:38:40;3.00;99.90
26270;DHT22;15937;50.612;6.656;2023-04-03T06:42:41;3.10;99.90
26270;DHT22;15937;50.612;6.656;2023-04-03T06:46:44;3.30;99.90
26270;DHT22;15937;50.612;6.656;2023-04-03T06:50:48;3.30;99.90
26270;DHT22;15937;50.612;6.656;2023-04-03T06:54:49;3.60;99.90
26270;DHT22;15937;50.612;6.656;2023-04-03T06:58:54;3.60;99.90
26270;DHT22;15937;50.612;6.656;2023-04-03T07:02:56;3.70;99.90
26270;DHT22;15937;50.612;6.656;2023-04-03T07:06:59;3.70;99.90
26270;DHT22;15937;50.612;6.656;2023-04-03T07:11:01;3.60;99.90
26270;DHT22;15937;50.612;6.656;2023-04-03T07:15:04;4.00;99.90
26270;DHT22;15937;50.612;6.656;2023-04-03T07:19:06;3.90;99.90
26270;DHT22;15937;50.612;6.656;2023-04-03T07:23:10;4.20;99.90
26270;DHT22;15937;50.612;6.656;2023-04-03T07:27:12;4.30;99.90
26270;DHT22;15937;50.612;6.656;2023-04-03T07:31:15;4.40;99.90
26270;DHT22;15937;50.612;6.656;2023-04-03T07:35:18;4.50;99.90
26270;DHT22;15937;50.612;6.656;2023-04-03T07:39:20;4.50;99.90
26270;DHT22;15937;50.612;6.656;2023-04-03T07:43:22;4.70;99.90
26270;DHT22;15937;50.612;6.656;2023-04-03T07:47:26;5.00;99.90
26270;DHT22;15937;50.612;6.656;2023-04-03T07:51:27;4.90;99.90
26270;DHT22;15937;50.612;6.656;2023-04-03T07:55:31;5.10;99.90
26270;DHT22;15937;50.612;6.656;2023-04-03T07:59:35;5.30;99.90
26270;DHT22;15937;50.612;6.656;2023-04-03T08:03:38;5.50;99.90
26270;DHT22;15937;50.612;6.656;2023-04-03T08:07:40;5.40;99.90
26270;DHT22;15937;50.612;6.656;2023-04-03T08:11:42;5.70;99.90
26270;DHT22;15937;50.612;6.656;2023-04-03T08:15:44;5.60;99.90
26270;DHT22;15937;50.612;6.656;2023-04-03T08:19:46;5.60;99.90
26270;DHT22;15937;50.612;6.656;2023-04-03T08:23:49;5.50;99.90
26270;DHT22;15937;50.612;6.656;2023-04-03T08:27:55;5.70;99.90
26270;DHT22;15937;50.612;6.656;2023-04-03T08:31:57;5.80;99.90
26270;DHT22;15937;50.612;6.656;2023-04-03T08:35:59;5.70;99.90
26270;DHT22;15937;50.612;6.656;2023-04-03T08:40:01;5.80;99.90
26270;DHT22;15937;50.612;6.656;2023-04-03T08:44:23;5.60;99.90
26270;DHT22;15937;50.612;6.656;2023-04-03T08:48:38;5.80;99.90
26270;DHT22;15937;50.612;6.656;2023-04-03T08:52:53;6.00;99.90
26270;DHT22;15937;50.612;6.656;2023-04-03T08:56:58;6.00;99.90
26270;DHT22;15937;50.612;6.656;2023-04-03T09:01:05;6.00;99.90
26270;DHT22;15937;50.612;6.656;2023-04-03T09:05:30;5.60;99.90
26270;DHT22;15937;50.612;6.656;2023-04-03T09:09:41;5.60;99.90
26270;DHT22;15937;50.612;6.656;2023-04-03T09:14:49;5.50;99.90
26270;DHT22;15937;50.612;6.656;2023-04-03T09:18:28;5.70;99.90
26270;DHT22;15937;50.612;6.656;2023-04-03T09:22:34;6.10;99.90
26270;DHT22;15937;50.612;6.656;2023-04-03T09:26:59;6.40;99.90
26270;DHT22;15937;50.612;6.656;2023-04-03T09:31:16;6.30;99.90
26270;DHT22;15937;50.612;6.656;2023-04-03T09:35:26;6.10;99.90
26270;DHT22;15937;50.612;6.656;2023-04-03T09:39:53;6.50;99.90
26270;DHT22;15937;50.612;6.656;2023-04-03T09:43:55;6.80;99.90
26270;DHT22;15937;50.612;6.656;2023-04-03T09:52:24;7.00;99.90
26270;DHT22;15937;50.612;6.656;2023-04-03T09:56:30;6.60;99.90
26270;DHT22;15937;50.612;6.656;2023-04-03T10:00:40;6.80;99.90
26270;DHT22;15937;50.612;6.656;2023-04-03T10:04:42;7.20;99.90
26270;DHT22;15937;50.612;6.656;2023-04-03T10:09:02;6.70;99.90
26270;DHT22;15937;50.612;6.656;2023-04-03T10:13:20;6.90;99.90
26270;DHT22;15937;50.612;6.656;2023-04-03T10:18:02;6.80;99.90
26270;DHT22;15937;50.612;6.656;2023-04-03T10:35:59;7.00;99.90
26270;DHT22;15937;50.612;6.656;2023-04-03T10:49:25;8.00;99.80
26270;DHT22;15937;50.612;6.656;2023-04-03T10:53:42;7.70;97.10
26270;DHT22;15937;50.612;6.656;2023-04-03T10:57:46;7.50;98.30
26270;DHT22;15937;50.612;6.656;2023-04-03T11:01:56;7.50;98.90
26270;DHT22;15937;50.612;6.656;2023-04-03T11:06:02;7.80;96.90
26270;DHT22;15937;50.612;6.656;2023-04-03T11:10:12;8.20;97.30
26270;DHT22;15937;50.612;6.656;2023-04-03T11:14:33;8.30;97.50
26270;DHT22;15937;50.612;6.656;2023-04-03T11:18:43;7.60;92.00
26270;DHT22;15937;50.612;6.656;2023-04-03T11:27:04;8.20;93.10
26270;DHT22;15937;50.612;6.656;2023-04-03T11:31:41;8.30;91.30
26270;DHT22;15937;50.612;6.656;2023-04-03T11:35:51;8.40;90.20
26270;DHT22;15937;50.612;6.656;2023-04-03T11:39:59;7.90;84.10
26270;DHT22;15937;50.612;6.656;2023-04-03T11:44:05;8.40;87.50
26270;DHT22;15937;50.612;6.656;2023-04-03T11:56:45;8.10;84.90
26270;DHT22;15937;50.612;6.656;2023-04-03T12:00:50;8.20;82.80
26270;DHT22;15937;50.612;6.656;2023-04-03T12:05:25;8.60;83.90
26270;DHT22;15937;50.612;6.656;2023-04-03T12:09:54;8.70;86.20
26270;DHT22;15937;50.612;6.656;2023-04-03T12:17:59;8.70;84.20
26270;DHT22;15937;50.612;6.656;2023-04-03T12:22:22;8.70;83.80
26270;DHT22;15937;50.612;6.656;2023-04-03T12:26:31;8.70;84.40
26270;DHT22;15937;50.612;6.656;2023-04-03T12:30:48;8.60;79.90
26270;DHT22;15937;50.612;6.656;2023-04-03T12:39:42;9.00;77.90
26270;DHT22;15937;50.612;6.656;2023-04-03T12:48:17;9.10;82.70
26270;DHT22;15937;50.612;6.656;2023-04-03T12:52:39;8.90;77.90
26270;DHT22;15937;50.612;6.656;2023-04-03T12:56:43;8.80;76.10
26270;DHT22;15937;50.612;6.656;2023-04-03T13:00:45;8.90;77.60
26270;DHT22;15937;50.612;6.656;2023-04-03T13:04:49;8.90;76.10
26270;DHT22;15937;50.612;6.656;2023-04-03T13:08:52;9.10;75.20
26270;DHT22;15937;50.612;6.656;2023-04-03T13:13:08;8.90;71.40
26270;DHT22;15937;50.612;6.656;2023-04-03T13:17:14;9.40;77.80
26270;DHT22;15937;50.612;6.656;2023-04-03T13:21:21;9.20;75.10
26270;DHT22;15937;50.612;6.656;2023-04-03T13:25:27;9.60;77.10
26270;DHT22;15937;50.612;6.656;2023-04-03T13:29:32;9.30;72.60
26270;DHT22;15937;50.612;6.656;2023-04-03T13:33:36;9.50;76.10
26270;DHT22;15937;50.612;6.656;2023-04-03T13:37:54;9.40;76.20
26270;DHT22;15937;50.612;6.656;2023-04-03T13:42:03;9.60;76.90
26270;DHT22;15937;50.612;6.656;2023-04-03T13:50:21;9.90;76.90
26270;DHT22;15937;50.612;6.656;2023-04-03T13:54:33;9.50;76.80
26270;DHT22;15937;50.612;6.656;2023-04-03T13:58:36;9.70;75.40
26270;DHT22;15937;50.612;6.656;2023-04-03T14:02:39;10.00;75.80
26270;DHT22;15937;50.612;6.656;2023-04-03T14:06:41;9.70;73.70
26270;DHT22;15937;50.612;6.656;2023-04-03T14:10:42;9.30;73.40
26270;DHT22;15937;50.612;6.656;2023-04-03T14:14:45;9.80;73.40
26270;DHT22;15937;50.612;6.656;2023-04-03T14:18:49;9.80;73.90
26270;DHT22;15937;50.612;6.656;2023-04-03T14:22:51;10.20;72.20
26270;DHT22;15937;50.612;6.656;2023-04-03T14:26:54;10.10;71.10
26270;DHT22;15937;50.612;6.656;2023-04-03T14:30:56;9.80;71.10
26270;DHT22;15937;50.612;6.656;2023-04-03T14:34:58;9.60;67.80
26270;DHT22;15937;50.612;6.656;2023-04-03T14:39:00;9.70;69.40
26270;DHT22;15937;50.612;6.656;2023-04-03T14:43:05;10.00;70.30
26270;DHT22;15937;50.612;6.656;2023-04-03T14:47:16;9.80;71.00
26270;DHT22;15937;50.612;6.656;2023-04-03T14:51:32;9.80;69.90
26270;DHT22;15937;50.612;6.656;2023-04-03T14:55:33;9.90;67.90
26270;DHT22;15937;50.612;6.656;2023-04-03T14:59:36;9.80;68.50
26270;DHT22;15937;50.612;6.656;2023-04-03T15:03:38;9.70;69.20
26270;DHT22;15937;50.612;6.656;2023-04-03T15:07:48;9.80;71.40
26270;DHT22;15937;50.612;6.656;2023-04-03T15:11:51;9.80;70.60
26270;DHT22;15937;50.612;6.656;2023-04-03T15:15:54;9.60;71.00
26270;DHT22;15937;50.612;6.656;2023-04-03T15:19:56;9.80;71.10
26270;DHT22;15937;50.612;6.656;2023-04-03T15:23:58;9.80;68.60
26270;DHT22;15937;50.612;6.656;2023-04-03T15:28:02;9.70;69.10
26270;DHT22;15937;50.612;6.656;2023-04-03T15:32:05;9.70;69.90
26270;DHT22;15937;50.612;6.656;2023-04-03T15:36:07;9.70;70.30
26270;DHT22;15937;50.612;6.656;2023-04-03T15:40:29;9.80;71.20
26270;DHT22;15937;50.612;6.656;2023-04-03T15:44:31;9.00;68.70
26270;DHT22;15937;50.612;6.656;2023-04-03T15:48:33;9.90;72.80
26270;DHT22;15937;50.612;6.656;2023-04-03T15:52:35;10.30;71.00
26270;DHT22;15937;50.612;6.656;2023-04-03T15:56:37;10.10;69.50
26270;DHT22;15937;50.612;6.656;2023-04-03T16:00:39;10.10;70.20
26270;DHT22;15937;50.612;6.656;2023-04-03T16:04:41;10.20;70.70
26270;DHT22;15937;50.612;6.656;2023-04-03T16:08:43;10.50;70.40
26270;DHT22;15937;50.612;6.656;2023-04-03T16:12:45;10.00;69.50
26270;DHT22;15937;50.612;6.656;2023-04-03T16:16:47;9.90;69.30
26270;DHT22;15937;50.612;6.656;2023-04-03T16:20:49;10.20;68.00
26270;DHT22;15937;50.612;6.656;2023-04-03T16:24:51;10.30;69.50
26270;DHT22;15937;50.612;6.656;2023-04-03T16:28:53;10.00;67.70
26270;DHT22;15937;50.612;6.656;2023-04-03T16:32:57;10.40;68.70
26270;DHT22;15937;50.612;6.656;2023-04-03T16:36:59;10.30;68.60
26270;DHT22;15937;50.612;6.656;2023-04-03T16:41:01;10.40;68.40
26270;DHT22;15937;50.612;6.656;2023-04-03T16:45:06;10.00;68.40
26270;DHT22;15937;50.612;6.656;2023-04-03T16:49:09;10.00;67.80
26270;DHT22;15937;50.612;6.656;2023-04-03T16:53:11;9.90;69.70
26270;DHT22;15937;50.612;6.656;2023-04-03T16:57:12;9.80;68.40
26270;DHT22;15937;50.612;6.656;2023-04-03T17:01:17;10.20;68.50
26270;DHT22;15937;50.612;6.656;2023-04-03T17:05:19;9.90;68.90
26270;DHT22;15937;50.612;6.656;2023-04-03T17:09:21;9.50;70.10
26270;DHT22;15937;50.612;6.656;2023-04-03T17:13:23;9.20;71.10
26270;DHT22;15937;50.612;6.656;2023-04-03T17:17:32;8.80;71.10
26270;DHT22;15937;50.612;6.656;2023-04-03T17:21:34;8.60;73.20
26270;DHT22;15937;50.612;6.656;2023-04-03T17:25:37;8.50;71.30
26270;DHT22;15937;50.612;6.656;2023-04-03T17:29:38;8.50;72.80
26270;DHT22;15937;50.612;6.656;2023-04-03T17:33:40;8.50;74.40
26270;DHT22;15937;50.612;6.656;2023-04-03T17:37:42;8.30;74.50
26270;DHT22;15937;50.612;6.656;2023-04-03T17:41:44;8.10;74.80
26270;DHT22;15937;50.612;6.656;2023-04-03T17:45:50;8.00;75.10
26270;DHT22;15937;50.612;6.656;2023-04-03T17:49:51;8.00;75.10
26270;DHT22;15937;50.612;6.656;2023-04-03T17:53:54;8.00;77.50
26270;DHT22;15937;50.612;6.656;2023-04-03T17:57:58;7.90;76.90
26270;DHT22;15937;50.612;6.656;2023-04-03T18:02:00;7.80;77.50
26270;DHT22;15937;50.612;6.656;2023-04-03T18:06:04;7.70;78.30
26270;DHT22;15937;50.612;6.656;2023-04-03T18:10:07;7.50;77.60
26270;DHT22;15937;50.612;6.656;2023-04-03T18:14:09;7.50;79.20
26270;DHT22;15937;50.612;6.656;2023-04-03T18:18:11;7.50;80.40
26270;DHT22;15937;50.612;6.656;2023-04-03T18:22:15;7.30;79.60
26270;DHT22;15937;50.612;6.656;2023-04-03T18:26:17;7.00;80.20
26270;DHT22;15937;50.612;6.656;2023-04-03T18:30:22;7.10;80.70
26270;DHT22;15937;50.612;6.656;2023-04-03T18:34:23;7.00;80.80
26270;DHT22;15937;50.612;6.656;2023-04-03T18:38:25;6.90;81.50
26270;DHT22;15937;50.612;6.656;2023-04-03T18:42:27;6.80;81.90
26270;DHT22;15937;50.612;6.656;2023-04-03T18:46:31;6.60;82.20
26270;DHT22;15937;50.612;6.656;2023-04-03T18:50:33;6.60;82.10
26270;DHT22;15937;50.612;6.656;2023-04-03T18:54:35;6.40;83.50
26270;DHT22;15937;50.612;6.656;2023-04-03T18:58:37;6.30;83.50
26270;DHT22;15937;50.612;6.656;2023-04-03T19:02:39;6.30;83.80
26270;DHT22;15937;50.612;6.656;2023-04-03T19:06:41;6.10;84.50
26270;DHT22;15937;50.612;6.656;2023-04-03T19:10:43;6.00;84.50
26270;DHT22;15937;50.612;6.656;2023-04-03T19:14:45;5.90;87.00
26270;DHT22;15937;50.612;6.656;2023-04-03T19:18:47;5.80;87.20
26270;DHT22;15937;50.612;6.656;2023-04-03T19:22:48;5.70;87.10
26270;DHT22;15937;50.612;6.656;2023-04-03T19:26:50;5.60;87.50
26270;DHT22;15937;50.612;6.656;2023-04-03T19:30:52;5.60;87.20
26270;DHT22;15937;50.612;6.656;2023-04-03T19:34:56;5.50;89.50
26270;DHT22;15937;50.612;6.656;2023-04-03T19:38:58;5.30;88.20
26270;DHT22;15937;50.612;6.656;2023-04-03T19:43:00;5.20;89.60
26270;DHT22;15937;50.612;6.656;2023-04-03T19:47:02;5.20;90.80
26270;DHT22;15937;50.612;6.656;2023-04-03T19:51:04;5.20;90.60
26270;DHT22;15937;50.612;6.656;2023-04-03T19:55:08;5.20;90.70
26270;DHT22;15937;50.612;6.656;2023-04-03T19:59:11;5.10;90.60
26270;DHT22;15937;50.612;6.656;2023-04-03T20:03:13;5.10;91.00
26270;DHT22;15937;50.612;6.656;2023-04-03T20:07:15;4.80;90.70
26270;DHT22;15937;50.612;6.656;2023-04-03T20:11:17;4.90;91.60
26270;DHT22;15937;50.612;6.656;2023-04-03T20:15:19;4.70;91.40
26270;DHT22;15937;50.612;6.656;2023-04-03T20:19:21;4.50;91.70
26270;DHT22;15937;50.612;6.656;2023-04-03T20:23:28;4.30;92.00
26270;DHT22;15937;50.612;6.656;2023-04-03T20:27:30;4.50;92.30
26270;DHT22;15937;50.612;6.656;2023-04-03T20:31:33;4.50;92.30
26270;DHT22;15937;50.612;6.656;2023-04-03T20:35:34;4.50;92.80
26270;DHT22;15937;50.612;6.656;2023-04-03T20:39:36;4.60;92.30
26270;DHT22;15937;50.612;6.656;2023-04-03T20:43:38;4.40;92.10
26270;DHT22;15937;50.612;6.656;2023-04-03T20:47:40;4.30;92.60
26270;DHT22;15937;50.612;6.656;2023-04-03T20:51:42;4.20;92.20
26270;DHT22;15937;50.612;6.656;2023-04-03T20:59:57;4.30;92.00
26270;DHT22;15937;50.612;6.656;2023-04-03T21:04:04;4.00;92.60
26270;DHT22;15937;50.612;6.656;2023-04-03T21:21:28;4.10;93.80
26270;DHT22;15937;50.612;6.656;2023-04-03T21:25:34;4.00;93.90
26270;DHT22;15937;50.612;6.656;2023-04-03T21:29:35;3.90;94.40
26270;DHT22;15937;50.612;6.656;2023-04-03T21:33:37;3.80;94.30
26270;DHT22;15937;50.612;6.656;2023-04-03T21:37:39;3.90;94.70
26270;DHT22;15937;50.612;6.656;2023-04-03T21:41:41;3.70;94.20
26270;DHT22;15937;50.612;6.656;2023-04-03T21:45:42;3.60;94.50
26270;DHT22;15937;50.612;6.656;2023-04-03T21:49:44;3.70;95.30
26270;DHT22;15937;50.612;6.656;2023-04-03T21:53:51;3.70;95.00
26270;DHT22;15937;50.612;6.656;2023-04-03T21:57:56;3.50;94.80
26270;DHT22;15937;50.612;6.656;2023-04-03T22:02:00;3.50;95.70
26270;DHT22;15937;50.612;6.656;2023-04-03T22:06:02;3.40;96.10
26270;DHT22;15937;50.612;6.656;2023-04-03T22:10:05;3.30;97.00
26270;DHT22;15937;50.612;6.656;2023-04-03T22:14:07;3.20;97.40
26270;DHT22;15937;50.612;6.656;2023-04-03T22:18:09;3.30;98.00
26270;DHT22;15937;50.612;6.656;2023-04-03T22:22:11;3.20;98.20
26270;DHT22;15937;50.612;6.656;2023-04-03T22:26:13;3.00;99.10
26270;DHT22;15937;50.612;6.656;2023-04-03T22:30:15;2.80;99.70
26270;DHT22;15937;50.612;6.656;2023-04-03T22:34:17;2.80;99.90
26270;DHT22;15937;50.612;6.656;2023-04-03T22:38:20;2.70;99.90
26270;DHT22;15937;50.612;6.656;2023-04-03T22:42:22;2.60;99.90
26270;DHT22;15937;50.612;6.656;2023-04-03T22:46:24;2.20;99.90
26270;DHT22;15937;50.612;6.656;2023-04-03T22:50:26;2.00;99.90
26270;DHT22;15937;50.612;6.656;2023-04-03T22:54:28;2.00;99.90
26270;DHT22;15937;50.612;6.656;2023-04-03T22:58:30;2.10;99.90
26270;DHT22;15937;50.612;6.656;2023-04-03T23:02:32;2.00;99.90
26270;DHT22;15937;50.612;6.656;2023-04-03T23:06:34;2.30;99.90
26270;DHT22;15937;50.612;6.656;2023-04-03T23:10:36;2.30;99.90
26270;DHT22;15937;50.612;6.656;2023-04-03T23:14:38;2.20;99.90
26270;DHT22;15937;50.612;6.656;2023-04-03T23:18:40;2.20;99.90
26270;DHT22;15937;50.612;6.656;2023-04-03T23:22:44;2.30;99.90
26270;DHT22;15937;50.612;6.656;2023-04-03T23:26:46;2.30;99.90
26270;DHT22;15937;50.612;6.656;2023-04-03T23:30:48;2.20;99.90
26270;DHT22;15937;50.612;6.656;2023-04-03T23:34:51;1.70;99.90
26270;DHT22;15937;50.612;6.656;2023-04-03T23:38:56;1.20;99.90
26270;DHT22;15937;50.612;6.656;2023-04-03T23:42:58;0.80;99.90
26270;DHT22;15937;50.612;6.656;2023-04-03T23:46:59;0.80;99.90
26270;DHT22;15937;50.612;6.656;2023-04-03T23:51:01;1.00;99.90
26270;DHT22;15937;50.612;6.656;2023-04-03T23:55:04;1.20;99.90
26270;DHT22;15937;50.612;6.656;2023-04-03T23:59:06;1.40;99.90
